Terminal Aerodrome Forecast
Issued by NWS

Home | Current Version | Previous Version | Text Only | Print | Product List | Glossary On
Versions: 1 2 3 4 5 6 7 8 9 10 11 12 13 14 15 16 17 18 19
902
FTUS43 KDTX 080012 AAA
TAFMBS
TAF AMD
KMBS 080012Z 0800/0824 21010KT P6SM SCT040 OVC090
      TEMPO 0800/0801 -SHRA OVC040
     FM080300 20007KT P6SM SCT028 OVC040
     FM080700 21006KT 6SM HZ OVC028
     FM081300 24007KT P6SM SCT025 OVC080
     FM081600 28007KT P6SM BKN035=

USA.gov is the U.S. government's official web portal to all federal, state and local government web resources and services.